createdAt,value
2023-04-04T00:03:14.939Z,69.21
2023-04-04T00:08:07.204Z,69.89
2023-04-04T00:12:59.058Z,70.22
2023-04-04T00:17:51.783Z,70.31
2023-04-04T00:22:43.481Z,70.11
2023-04-04T00:27:35.151Z,70.86
2023-04-04T00:32:31.746Z,70.93
2023-04-04T00:37:23.484Z,69.55
2023-04-04T00:42:15.281Z,69.55
2023-04-04T00:47:07.048Z,69.68
2023-04-04T00:51:59.200Z,70.33
2023-04-04T00:56:55.093Z,70.11
2023-04-04T01:01:47.107Z,70.08
2023-04-04T01:06:38.888Z,69.90
2023-04-04T01:11:31.102Z,69.92
2023-04-04T01:16:24.109Z,69.74
2023-04-04T01:21:18.150Z,69.95
2023-04-04T01:26:10.234Z,70.23
2023-04-04T01:31:04.535Z,70.19
2023-04-04T01:36:13.932Z,70.61
2023-04-04T01:41:12.000Z,70.84
2023-04-04T01:46:04.262Z,70.65
2023-04-04T01:50:56.912Z,70.08
2023-04-04T01:55:48.603Z,70.95
2023-04-04T02:00:40.492Z,70.78
2023-04-04T02:05:32.387Z,70.96
2023-04-04T02:10:24.118Z,71.39
2023-04-04T02:15:15.904Z,70.71
2023-04-04T02:20:08.405Z,71.56
2023-04-04T02:25:02.590Z,71.63
2023-04-04T02:29:55.197Z,72.23
2023-04-04T02:34:47.532Z,71.64
2023-04-04T02:39:39.202Z,72.08
2023-04-04T02:44:31.242Z,72.14
2023-04-04T02:49:23.031Z,72.07
2023-04-04T02:54:14.722Z,72.49
2023-04-04T02:59:06.468Z,72.17
2023-04-04T03:03:58.731Z,73.06
2023-04-04T03:08:50.469Z,72.90
2023-04-04T03:13:42.145Z,73.01
2023-04-04T03:18:34.631Z,72.92
2023-04-04T03:23:26.562Z,73.78
2023-04-04T03:28:18.227Z,73.90
2023-04-04T03:33:10.062Z,74.21
2023-04-04T03:38:03.394Z,74.29
2023-04-04T03:42:55.144Z,74.47
2023-04-04T03:47:47.212Z,74.77
2023-04-04T03:52:41.705Z,74.89
2023-04-04T03:57:33.708Z,74.65
2023-04-04T04:02:29.230Z,74.71
2023-04-04T04:07:21.398Z,74.79
2023-04-04T04:12:13.077Z,75.38
2023-04-04T04:17:05.483Z,75.35
2023-04-04T04:21:57.167Z,75.62
2023-04-04T04:26:48.902Z,75.72
2023-04-04T04:31:41.627Z,76.36
2023-04-04T04:36:33.588Z,76.58
2023-04-04T04:41:25.811Z,76.06
2023-04-04T04:46:17.633Z,76.34
2023-04-04T04:51:09.419Z,76.56
2023-04-04T04:56:01.111Z,76.44
2023-04-04T05:00:57.641Z,76.78
2023-04-04T05:10:56.141Z,77.44
2023-04-04T05:15:47.937Z,74.73
2023-04-04T05:20:40.247Z,70.99
2023-04-04T05:25:32.750Z,69.75
2023-04-04T05:30:24.690Z,68.50
2023-04-04T05:35:16.512Z,66.42
2023-04-04T05:40:10.313Z,68.47
2023-04-04T05:55:17.118Z,59.85
2023-04-04T06:00:12.612Z,60.18
2023-04-04T06:05:08.597Z,60.48
2023-04-04T06:10:00.272Z,61.04
2023-04-04T06:14:51.960Z,60.11
2023-04-04T06:19:43.654Z,61.47
2023-04-04T06:34:47.920Z,61.59
2023-04-04T06:39:39.610Z,64.34
2023-04-04T06:49:42.623Z,66.14
2023-04-04T06:54:34.866Z,67.63
2023-04-04T06:59:28.472Z,65.77
2023-04-04T07:04:20.630Z,66.17
2023-04-04T07:09:21.997Z,64.75
2023-04-04T07:14:28.567Z,65.31
2023-04-04T07:19:21.046Z,65.25
2023-04-04T07:29:19.344Z,63.29
2023-04-04T07:34:11.404Z,62.97
2023-04-04T07:39:13.097Z,63.89
2023-04-04T07:44:06.614Z,62.26
2023-04-04T07:48:59.388Z,61.30
2023-04-04T07:53:51.897Z,61.18
2023-04-04T07:58:43.602Z,61.27
2023-04-04T08:03:35.661Z,59.99
2023-04-04T08:13:36.556Z,59.10
2023-04-04T08:23:36.899Z,57.42
2023-04-04T08:28:29.345Z,57.11
2023-04-04T08:33:37.421Z,57.71
2023-04-04T08:38:42.683Z,55.74
2023-04-04T08:43:38.470Z,55.84
2023-04-04T08:48:32.033Z,56.15
2023-04-04T09:03:46.434Z,54.13
2023-04-04T09:08:41.007Z,55.26
2023-04-04T09:13:39.140Z,53.85
2023-04-04T09:18:33.304Z,53.02
2023-04-04T09:28:36.897Z,51.20
2023-04-04T09:38:40.811Z,50.71
2023-04-04T09:43:35.440Z,49.89
2023-04-04T09:53:41.928Z,47.93
2023-04-04T09:58:52.325Z,48.71
2023-04-04T10:50:40.684Z,46.66
2023-04-04T10:55:48.749Z,46.50
2023-04-04T11:01:01.001Z,46.10
2023-04-04T11:06:00.583Z,44.11
2023-04-04T11:11:01.563Z,44.63
2023-04-04T11:21:32.830Z,45.58
2023-04-04T11:26:30.340Z,46.37
2023-04-04T11:42:14.339Z,42.48
2023-04-04T11:47:05.966Z,43.78
2023-04-04T11:51:59.334Z,43.72
2023-04-04T12:02:01.513Z,44.63
2023-04-04T12:12:13.456Z,42.65
2023-04-04T12:17:05.887Z,42.28
2023-04-04T12:21:58.097Z,42.82
2023-04-04T12:26:55.317Z,43.16
2023-04-04T12:31:49.465Z,45.21
2023-04-04T12:36:41.375Z,44.90
2023-04-04T12:41:35.518Z,44.66
2023-04-04T12:46:36.814Z,45.05
2023-04-04T13:01:49.936Z,44.98
2023-04-04T13:06:49.248Z,43.18
2023-04-04T13:12:14.992Z,43.98
2023-04-04T13:17:17.955Z,43.80
2023-04-04T13:22:09.716Z,42.17
2023-04-04T13:27:01.799Z,43.18
2023-04-04T13:31:53.748Z,43.79
2023-04-04T13:57:23.834Z,43.08
2023-04-04T14:07:26.520Z,41.33
2023-04-04T14:12:19.264Z,41.89
2023-04-04T14:37:35.628Z,41.26
2023-04-04T15:08:02.339Z,41.59
2023-04-04T15:18:01.926Z,40.36
2023-04-04T15:22:54.369Z,41.53
2023-04-04T15:27:46.140Z,40.35
2023-04-04T15:32:37.872Z,40.60
2023-04-04T15:42:35.562Z,41.16
2023-04-04T15:47:27.273Z,41.56
2023-04-04T15:52:18.983Z,42.10
2023-04-04T16:02:21.581Z,40.24
2023-04-04T16:07:13.262Z,41.00
2023-04-04T16:12:05.576Z,42.33
2023-04-04T16:16:58.127Z,41.13
2023-04-04T16:21:49.865Z,42.00
2023-04-04T16:26:47.188Z,42.41
2023-04-04T16:31:39.005Z,42.01
2023-04-04T17:02:34.642Z,44.19
2023-04-04T17:07:27.195Z,44.36
2023-04-04T17:12:24.179Z,43.51
2023-04-04T17:17:16.273Z,44.36
2023-04-04T17:22:08.078Z,44.98
2023-04-04T17:27:01.324Z,44.01
2023-04-04T18:03:00.052Z,47.22
2023-04-04T18:13:01.099Z,47.47
2023-04-04T18:17:53.458Z,47.88
2023-04-04T18:22:45.650Z,48.78
2023-04-04T18:27:37.394Z,49.09
2023-04-04T18:32:31.000Z,49.51
2023-04-04T18:37:22.818Z,49.85
2023-04-04T18:42:15.478Z,50.15
2023-04-04T18:47:08.753Z,50.74
2023-04-04T18:57:09.123Z,51.33
2023-04-04T19:17:32.860Z,53.32
2023-04-04T20:04:13.922Z,54.22
2023-04-04T20:09:39.910Z,53.42
2023-04-04T20:14:31.611Z,54.40
2023-04-04T20:19:29.526Z,53.44
2023-04-04T20:50:18.183Z,54.40
2023-04-04T20:55:23.900Z,55.26
2023-04-04T21:00:42.599Z,55.02
2023-04-04T21:21:25.744Z,56.35
2023-04-04T21:36:51.222Z,57.16
2023-04-04T21:52:01.707Z,57.05
2023-04-04T22:07:15.073Z,56.35
2023-04-04T22:12:16.501Z,57.21
2023-04-04T22:17:08.410Z,57.70
2023-04-04T22:22:00.190Z,57.36
2023-04-04T22:27:01.552Z,57.76
2023-04-04T22:31:53.427Z,57.27
2023-04-04T22:36:45.668Z,57.06
2023-04-04T22:41:41.436Z,56.88
2023-04-04T22:51:45.746Z,56.76
2023-04-04T23:01:52.136Z,57.07
2023-04-04T23:17:41.281Z,56.55
2023-04-04T23:22:42.137Z,56.79
2023-04-04T23:27:36.793Z,56.86
2023-04-04T23:38:13.308Z,56.63
2023-04-04T23:43:19.040Z,56.73
2023-04-04T23:48:11.738Z,56.20
2023-04-04T23:53:03.496Z,57.15
